createdAt,value
2023-04-30T00:00:30.511Z,98484.97
2023-04-30T00:02:58.192Z,98491.13
2023-04-30T00:05:26.089Z,98483.28
2023-04-30T00:07:53.777Z,98484.78
2023-04-30T00:10:21.458Z,98484.66
2023-04-30T00:12:50.566Z,98484.50
2023-04-30T00:15:18.317Z,98486.13
2023-04-30T00:17:46.529Z,98495.72
2023-04-30T00:20:16.097Z,98488.66
2023-04-30T00:22:43.902Z,98493.78
2023-04-30T00:25:11.681Z,98495.72
2023-04-30T00:27:40.865Z,98493.19
2023-04-30T00:30:11.587Z,98490.16
2023-04-30T00:32:39.288Z,98491.16
2023-04-30T00:35:07.742Z,98492.75
2023-04-30T00:37:35.410Z,98493.69
2023-04-30T00:40:03.241Z,98502.09
2023-04-30T00:42:31.046Z,98502.75
2023-04-30T00:44:58.949Z,98504.81
2023-04-30T00:47:28.125Z,98495.94
2023-04-30T00:49:56.287Z,98498.88
2023-04-30T00:52:24.589Z,98506.41
2023-04-30T00:54:53.893Z,98503.00
2023-04-30T00:57:22.216Z,98510.16
2023-04-30T00:59:50.270Z,98504.59
2023-04-30T01:02:18.391Z,98506.75
2023-04-30T01:04:48.030Z,98508.03
2023-04-30T01:07:15.894Z,98516.78
2023-04-30T01:09:43.707Z,98514.38
2023-04-30T01:12:18.029Z,98511.44
2023-04-30T01:14:58.163Z,98515.66
2023-04-30T01:17:33.565Z,98518.03
2023-04-30T01:20:03.963Z,98516.78
2023-04-30T01:22:38.292Z,98516.44
2023-04-30T01:25:26.676Z,98521.91
2023-04-30T01:28:15.813Z,98517.13
2023-04-30T01:30:46.400Z,98518.03
2023-04-30T01:33:14.684Z,98515.75
2023-04-30T01:36:08.784Z,98514.06
2023-04-30T01:38:52.128Z,98511.66
2023-04-30T01:41:30.983Z,98510.06
2023-04-30T01:44:11.595Z,98522.13
2023-04-30T01:46:39.527Z,98527.84
2023-04-30T01:49:16.974Z,98516.44
2023-04-30T01:51:45.897Z,98521.44
2023-04-30T01:54:21.295Z,98519.59
2023-04-30T01:56:54.996Z,98520.75
2023-04-30T01:59:24.696Z,98530.31
2023-04-30T02:01:53.993Z,98531.25
2023-04-30T02:04:22.016Z,98530.31
2023-04-30T02:06:49.751Z,98531.25
2023-04-30T02:09:17.468Z,98535.09
2023-04-30T02:11:45.321Z,98540.56
2023-04-30T02:14:13.088Z,98546.72
2023-04-30T02:16:42.881Z,98542.84
2023-04-30T02:19:11.153Z,98545.13
2023-04-30T02:21:38.937Z,98550.59
2023-04-30T02:24:07.482Z,98555.81
2023-04-30T02:26:35.302Z,98550.38
2023-04-30T02:29:03.196Z,98551.94
2023-04-30T02:31:30.940Z,98551.03
2023-04-30T02:34:00.104Z,98549.91
2023-04-30T02:36:28.303Z,98549.91
2023-04-30T02:38:56.154Z,98551.50
2023-04-30T02:41:24.071Z,98549.31
2023-04-30T02:43:52.794Z,98550.09
2023-04-30T02:46:20.944Z,98552.25
2023-04-30T02:48:48.647Z,98549.63
2023-04-30T02:51:18.192Z,98551.09
2023-04-30T02:53:46.001Z,98551.34
2023-04-30T02:56:14.022Z,98553.50
2023-04-30T02:58:42.350Z,98547.09
2023-04-30T03:01:10.050Z,98548.97
2023-04-30T03:03:37.866Z,98543.50
2023-04-30T03:06:06.167Z,98548.97
2023-04-30T03:08:35.452Z,98551.91
2023-04-30T03:11:03.359Z,98558.50
2023-04-30T03:13:31.141Z,98562.69
2023-04-30T03:16:00.222Z,98556.44
2023-04-30T03:18:28.342Z,98555.16
2023-04-30T03:20:56.119Z,98550.31
2023-04-30T03:23:23.841Z,98550.03
2023-04-30T03:25:53.525Z,98555.63
2023-04-30T03:28:21.726Z,98557.00
2023-04-30T03:30:49.705Z,98550.94
2023-04-30T03:33:17.495Z,98552.44
2023-04-30T03:35:45.231Z,98544.84
2023-04-30T03:38:13.128Z,98548.34
2023-04-30T03:40:40.928Z,98548.22
2023-04-30T03:43:10.165Z,98548.88
2023-04-30T03:45:37.915Z,98544.75
2023-04-30T03:48:06.263Z,98548.88
2023-04-30T03:50:34.093Z,98547.09
2023-04-30T03:53:02.102Z,98554.34
2023-04-30T03:55:29.907Z,98558.19
2023-04-30T03:57:58.443Z,98551.41
2023-04-30T04:00:27.508Z,98550.94
2023-04-30T04:02:56.040Z,98553.69
2023-04-30T04:05:23.919Z,98552.88
2023-04-30T04:07:51.598Z,98545.94
2023-04-30T04:10:19.521Z,98546.84
2023-04-30T04:12:50.271Z,98552.06
2023-04-30T04:15:18.548Z,98552.88
2023-04-30T04:17:48.121Z,98560.72
2023-04-30T04:20:20.758Z,98561.13
2023-04-30T04:22:50.554Z,98565.00
2023-04-30T04:25:19.162Z,98561.28
2023-04-30T04:27:47.451Z,98566.19
2023-04-30T04:30:16.604Z,98568.59
2023-04-30T04:32:53.818Z,98570.66
2023-04-30T04:35:24.516Z,98560.50
2023-04-30T04:37:56.285Z,98565.53
2023-04-30T04:40:23.986Z,98574.84
2023-04-30T04:42:52.431Z,98570.28
2023-04-30T04:45:21.900Z,98570.28
2023-04-30T04:47:50.394Z,98573.13
2023-04-30T04:50:19.222Z,98573.47
2023-04-30T04:52:48.401Z,98572.16
2023-04-30T04:55:19.084Z,98567.47
2023-04-30T04:57:50.261Z,98570.91
2023-04-30T05:00:19.262Z,98575.34
2023-04-30T05:02:48.609Z,98580.34
2023-04-30T05:05:18.578Z,98580.13
2023-04-30T05:07:52.716Z,98582.88
2023-04-30T05:10:21.806Z,98579.69
2023-04-30T05:12:50.322Z,98591.53
2023-04-30T05:15:18.174Z,98589.50
2023-04-30T05:17:48.564Z,98577.22
2023-04-30T05:20:16.370Z,98587.22
2023-04-30T05:22:46.378Z,98585.75
2023-04-30T05:25:17.760Z,98583.34
2023-04-30T05:27:45.517Z,98583.16
2023-04-30T05:30:15.707Z,98587.03
2023-04-30T05:32:50.712Z,98599.13
2023-04-30T05:35:18.802Z,98598.75
2023-04-30T05:37:47.544Z,98596.16
2023-04-30T05:40:16.994Z,98598.19
2023-04-30T05:42:46.411Z,98597.75
2023-04-30T05:45:17.542Z,98601.16
2023-04-30T05:47:47.395Z,98594.78
2023-04-30T05:50:16.635Z,98588.97
2023-04-30T05:52:44.955Z,98601.72
2023-04-30T05:55:13.064Z,98594.13
2023-04-30T05:57:46.042Z,98600.59
2023-04-30T06:00:15.916Z,98594.25
2023-04-30T06:02:44.060Z,98598.44
2023-04-30T06:05:16.382Z,98601.84
2023-04-30T06:07:45.390Z,98606.19
2023-04-30T06:10:13.567Z,98595.81
2023-04-30T06:12:43.017Z,98600.22
2023-04-30T06:15:11.263Z,98604.22
2023-04-30T06:17:39.448Z,98599.53
2023-04-30T06:20:08.654Z,98605.69
2023-04-30T06:22:36.761Z,98610.00
2023-04-30T06:25:04.851Z,98600.97
2023-04-30T06:27:32.994Z,98597.16
2023-04-30T06:30:02.031Z,98595.28
2023-04-30T06:32:29.959Z,98592.88
2023-04-30T06:34:57.702Z,98593.38
2023-04-30T06:37:25.475Z,98593.41
2023-04-30T06:39:53.810Z,98599.44
2023-04-30T06:42:21.873Z,98592.22
2023-04-30T06:44:49.553Z,98587.16
2023-04-30T06:47:18.653Z,98594.47
2023-04-30T06:49:46.315Z,98589.59
2023-04-30T06:52:14.089Z,98587.78
2023-04-30T06:54:42.952Z,98587.44
2023-04-30T06:57:10.709Z,98586.78
2023-04-30T06:59:39.623Z,98597.50
2023-04-30T07:02:08.019Z,98593.72
2023-04-30T07:04:37.225Z,98595.19
2023-04-30T07:07:05.369Z,98587.97
2023-04-30T07:09:33.545Z,98591.91
2023-04-30T07:12:01.682Z,98589.03
2023-04-30T07:14:29.801Z,98588.94
2023-04-30T07:16:59.446Z,98598.41
2023-04-30T07:19:32.615Z,98592.09
2023-04-30T07:22:02.111Z,98595.22
2023-04-30T07:24:30.203Z,98595.16
2023-04-30T07:27:05.344Z,98602.34
2023-04-30T07:29:34.114Z,98593.94
2023-04-30T07:32:03.391Z,98592.78
2023-04-30T07:34:31.241Z,98597.94
2023-04-30T07:36:58.887Z,98593.31
2023-04-30T07:39:28.223Z,98587.84
2023-04-30T07:41:55.973Z,98591.22
2023-04-30T07:44:23.773Z,98590.56
2023-04-30T07:46:51.810Z,98588.88
2023-04-30T07:49:19.835Z,98587.97
2023-04-30T07:51:47.608Z,98586.34
2023-04-30T07:54:15.747Z,98585.06
2023-04-30T07:56:45.162Z,98585.44
2023-04-30T07:59:12.961Z,98587.66
2023-04-30T08:01:41.259Z,98578.25
2023-04-30T08:04:09.749Z,98581.34
2023-04-30T08:06:37.649Z,98583.84
2023-04-30T08:09:05.695Z,98582.59
2023-04-30T08:11:34.548Z,98582.09
2023-04-30T08:14:04.669Z,98572.22
2023-04-30T08:16:32.582Z,98575.81
2023-04-30T08:19:01.556Z,98573.56
2023-04-30T08:21:29.737Z,98570.44
2023-04-30T08:23:58.204Z,98573.66
2023-04-30T08:26:27.211Z,98575.44
2023-04-30T08:28:55.350Z,98579.91
2023-04-30T08:31:24.776Z,98574.94
2023-04-30T08:33:58.473Z,98575.28
2023-04-30T08:36:27.640Z,98558.94
2023-04-30T08:38:55.746Z,98549.44
2023-04-30T08:41:29.397Z,98564.41
2023-04-30T08:44:00.936Z,98564.53
2023-04-30T08:46:32.952Z,98564.50
2023-04-30T08:49:04.336Z,98560.59
2023-04-30T08:51:33.793Z,98566.00
2023-04-30T08:54:01.639Z,98555.50
2023-04-30T08:56:32.277Z,98570.22
2023-04-30T08:58:59.933Z,98560.13
2023-04-30T09:01:33.940Z,98562.97
2023-04-30T09:04:04.401Z,98564.44
2023-04-30T09:06:32.395Z,98565.19
2023-04-30T09:09:10.747Z,98559.63
2023-04-30T09:11:39.622Z,98567.53
2023-04-30T09:14:10.964Z,98556.53
2023-04-30T09:16:50.735Z,98564.63
2023-04-30T09:19:29.287Z,98574.06
2023-04-30T09:21:57.578Z,98559.41
2023-04-30T09:24:25.883Z,98561.25
2023-04-30T09:26:55.131Z,98560.81
2023-04-30T09:29:22.828Z,98560.34
2023-04-30T09:31:54.463Z,98560.41
2023-04-30T09:34:35.190Z,98556.69
2023-04-30T09:37:04.149Z,98551.78
2023-04-30T09:39:34.031Z,98558.03
2023-04-30T09:42:11.486Z,98550.94
2023-04-30T09:44:41.671Z,98555.63
2023-04-30T09:47:14.791Z,98557.56
2023-04-30T09:49:44.505Z,98564.78
2023-04-30T09:52:12.833Z,98548.69
2023-04-30T09:54:42.161Z,98550.28
2023-04-30T09:57:12.419Z,98551.22
2023-04-30T09:59:44.954Z,98550.56
2023-04-30T10:02:16.689Z,98559.25
2023-04-30T10:04:46.128Z,98546.38
2023-04-30T10:07:17.181Z,98547.38
2023-04-30T10:09:51.818Z,98550.66
2023-04-30T10:12:25.628Z,98545.00
2023-04-30T10:14:58.524Z,98537.69
2023-04-30T10:17:32.256Z,98531.59
2023-04-30T10:20:05.845Z,98525.16
2023-04-30T10:22:35.937Z,98521.38
2023-04-30T10:25:05.849Z,98534.84
2023-04-30T10:27:34.212Z,98521.81
2023-04-30T10:30:03.781Z,98520.94
2023-04-30T10:32:39.022Z,98522.38
2023-04-30T10:35:13.467Z,98511.63
2023-04-30T10:37:47.462Z,98511.19
2023-04-30T10:40:15.314Z,98512.06
2023-04-30T10:42:47.415Z,98511.38
2023-04-30T10:45:17.329Z,98506.22
2023-04-30T10:47:48.831Z,98505.31
2023-04-30T10:50:16.686Z,98514.16
2023-04-30T10:52:48.681Z,98510.50
2023-04-30T10:55:21.626Z,98500.56
2023-04-30T10:57:51.591Z,98504.56
2023-04-30T11:00:20.951Z,98494.75
2023-04-30T11:02:50.311Z,98496.44
2023-04-30T11:05:19.569Z,98493.59
2023-04-30T11:07:50.054Z,98494.19
2023-04-30T11:10:18.525Z,98488.44
2023-04-30T11:12:50.728Z,98487.31
2023-04-30T11:15:20.025Z,98483.06
2023-04-30T11:17:50.727Z,98483.63
2023-04-30T11:20:21.532Z,98493.19
2023-04-30T11:22:49.465Z,98481.00
2023-04-30T11:25:23.306Z,98474.41
2023-04-30T11:28:02.946Z,98466.16
2023-04-30T11:30:32.102Z,98466.03
2023-04-30T11:33:02.010Z,98457.00
2023-04-30T11:35:30.182Z,98454.06
2023-04-30T11:37:59.246Z,98465.06
2023-04-30T11:40:27.814Z,98450.50
2023-04-30T11:42:57.399Z,98462.63
2023-04-30T11:45:27.273Z,98446.47
2023-04-30T11:47:57.014Z,98441.41
2023-04-30T11:50:28.900Z,98452.69
2023-04-30T11:52:59.481Z,98448.09
2023-04-30T11:55:29.945Z,98437.78
2023-04-30T11:58:00.729Z,98438.34
2023-04-30T12:00:33.421Z,98437.75
2023-04-30T12:03:04.060Z,98436.25
2023-04-30T12:05:31.918Z,98428.88
2023-04-30T12:08:04.396Z,98437.97
2023-04-30T12:10:32.902Z,98428.25
2023-04-30T12:13:00.617Z,98429.84
2023-04-30T12:15:30.595Z,98429.06
2023-04-30T12:17:59.629Z,98433.91
2023-04-30T12:20:29.978Z,98436.44
2023-04-30T12:22:58.785Z,98420.16
2023-04-30T12:25:29.685Z,98427.22
2023-04-30T12:28:00.412Z,98429.19
2023-04-30T12:30:30.724Z,98431.44
2023-04-30T12:33:00.373Z,98435.13
2023-04-30T12:35:31.123Z,98428.88
2023-04-30T12:38:03.554Z,98424.53
2023-04-30T12:40:32.300Z,98419.72
2023-04-30T12:43:05.635Z,98419.16
2023-04-30T12:45:51.285Z,98433.50
2023-04-30T12:48:20.515Z,98420.72
2023-04-30T12:50:55.597Z,98419.72
2023-04-30T12:53:24.500Z,98412.94
2023-04-30T12:56:14.483Z,98413.72
2023-04-30T12:58:45.454Z,98408.16
2023-04-30T13:01:18.436Z,98409.44
2023-04-30T13:03:48.712Z,98405.47
2023-04-30T13:06:16.612Z,98400.28
2023-04-30T13:08:57.347Z,98399.09
2023-04-30T13:11:27.790Z,98393.06
2023-04-30T13:13:56.590Z,98394.59
2023-04-30T13:16:26.267Z,98390.13
2023-04-30T13:18:54.323Z,98395.97
2023-04-30T13:21:22.156Z,98384.47
2023-04-30T13:23:53.393Z,98383.03
2023-04-30T13:26:24.128Z,98380.66
2023-04-30T13:28:51.943Z,98372.59
2023-04-30T13:31:19.969Z,98364.69
2023-04-30T13:33:49.369Z,98371.72
2023-04-30T13:36:18.364Z,98361.97
2023-04-30T13:38:48.673Z,98371.13
2023-04-30T13:41:17.794Z,98364.84
2023-04-30T13:43:47.973Z,98365.84
2023-04-30T13:46:16.724Z,98367.34
2023-04-30T13:48:48.103Z,98363.03
2023-04-30T13:51:17.199Z,98363.03
2023-04-30T13:53:44.997Z,98359.88
2023-04-30T13:56:12.765Z,98356.88
2023-04-30T13:58:44.780Z,98352.34
2023-04-30T14:01:13.891Z,98370.94
2023-04-30T14:03:42.181Z,98356.00
2023-04-30T14:06:10.567Z,98352.41
2023-04-30T14:08:39.755Z,98357.66
2023-04-30T14:11:07.621Z,98351.69
2023-04-30T14:13:35.855Z,98346.66
2023-04-30T14:16:04.158Z,98356.97
2023-04-30T14:18:34.463Z,98339.81
2023-04-30T14:21:02.173Z,98343.44
2023-04-30T14:23:29.975Z,98334.78
2023-04-30T14:26:00.366Z,98335.53
2023-04-30T14:28:29.772Z,98321.56
2023-04-30T14:30:57.783Z,98325.91
2023-04-30T14:33:26.721Z,98316.50
2023-04-30T14:35:55.763Z,98320.22
2023-04-30T14:38:23.751Z,98325.38
2023-04-30T14:40:51.754Z,98315.09
2023-04-30T14:43:21.437Z,98317.47
2023-04-30T14:45:49.342Z,98318.25
2023-04-30T14:48:18.488Z,98306.41
2023-04-30T14:50:46.462Z,98308.34
2023-04-30T14:53:14.697Z,98311.91
2023-04-30T14:55:42.638Z,98302.84
2023-04-30T14:58:10.439Z,98299.31
2023-04-30T15:00:39.775Z,98297.72
2023-04-30T15:03:07.789Z,98290.59
2023-04-30T15:05:35.748Z,98293.72
2023-04-30T15:08:03.512Z,98288.53
2023-04-30T15:10:31.606Z,98287.75
2023-04-30T15:12:59.355Z,98284.25
2023-04-30T15:15:29.122Z,98290.56
2023-04-30T15:17:59.216Z,98293.75
2023-04-30T15:20:27.912Z,98280.34
2023-04-30T15:22:55.842Z,98281.13
2023-04-30T15:25:24.201Z,98272.44
2023-04-30T15:27:52.108Z,98277.16
2023-04-30T15:30:21.516Z,98274.00
2023-04-30T15:32:50.402Z,98264.47
2023-04-30T15:35:20.012Z,98273.06
2023-04-30T15:37:47.777Z,98276.34
2023-04-30T15:40:16.015Z,98272.81
2023-04-30T15:42:44.129Z,98277.59
2023-04-30T15:45:12.370Z,98270.88
2023-04-30T15:47:40.363Z,98270.88
2023-04-30T15:50:09.796Z,98275.59
2023-04-30T15:52:40.169Z,98270.47
2023-04-30T15:55:09.164Z,98266.16
2023-04-30T15:57:37.211Z,98266.91
2023-04-30T16:00:05.578Z,98266.13
2023-04-30T16:02:33.310Z,98265.34
2023-04-30T16:05:01.309Z,98261.00
2023-04-30T16:07:32.109Z,98263.00
2023-04-30T16:10:02.189Z,98261.78
2023-04-30T16:12:30.182Z,98256.25
2023-04-30T16:14:59.849Z,98258.22
2023-04-30T16:17:30.133Z,98254.66
2023-04-30T16:19:58.240Z,98257.44
2023-04-30T16:22:27.347Z,98255.06
2023-04-30T16:24:55.420Z,98259.06
2023-04-30T16:27:25.404Z,98253.53
2023-04-30T16:29:54.385Z,98248.00
2023-04-30T16:32:22.329Z,98260.22
2023-04-30T16:34:50.317Z,98252.34
2023-04-30T16:37:18.530Z,98256.28
2023-04-30T16:39:46.568Z,98251.91
2023-04-30T16:42:14.533Z,98252.72
2023-04-30T16:44:46.592Z,98255.81
2023-04-30T16:47:14.462Z,98256.56
2023-04-30T16:49:42.331Z,98255.03
2023-04-30T16:52:10.263Z,98257.00
2023-04-30T16:54:37.950Z,98251.84
2023-04-30T16:57:05.967Z,98240.41
2023-04-30T16:59:34.160Z,98245.59
2023-04-30T17:02:03.910Z,98245.59
2023-04-30T17:04:32.864Z,98249.53
2023-04-30T17:07:03.814Z,98243.63
2023-04-30T17:09:31.868Z,98243.22
2023-04-30T17:12:00.162Z,98247.53
2023-04-30T17:14:29.296Z,98242.41
2023-04-30T17:16:57.658Z,98245.53
2023-04-30T17:19:26.845Z,98251.84
2023-04-30T17:21:55.065Z,98237.63
2023-04-30T17:24:24.579Z,98246.31
2023-04-30T17:26:52.742Z,98242.75
2023-04-30T17:29:21.388Z,98249.84
2023-04-30T17:31:49.373Z,98243.94
2023-04-30T17:34:17.371Z,98238.41
2023-04-30T17:36:46.735Z,98246.28
2023-04-30T17:39:14.551Z,98247.09
2023-04-30T17:41:43.251Z,98248.22
2023-04-30T17:44:11.809Z,98250.53
2023-04-30T17:46:41.944Z,98252.53
2023-04-30T17:49:10.090Z,98246.19
2023-04-30T17:51:37.885Z,98245.38
2023-04-30T17:54:07.244Z,98242.97
2023-04-30T17:56:37.198Z,98244.13
2023-04-30T17:59:04.903Z,98242.91
2023-04-30T18:01:33.978Z,98241.38
2023-04-30T18:04:04.105Z,98242.09
2023-04-30T18:06:32.318Z,98240.16
2023-04-30T18:09:01.427Z,98238.47
2023-04-30T18:11:30.803Z,98242.81
2023-04-30T18:13:58.881Z,98239.63
2023-04-30T18:16:26.967Z,98236.44
2023-04-30T18:18:54.691Z,98239.59
2023-04-30T18:21:22.692Z,98233.34
2023-04-30T18:23:50.592Z,98236.41
2023-04-30T18:26:23.812Z,98236.38
2023-04-30T18:28:54.217Z,98242.59
2023-04-30T18:31:22.884Z,98245.78
2023-04-30T18:33:50.671Z,98241.78
2023-04-30T18:36:18.703Z,98244.13
2023-04-30T18:38:46.713Z,98235.81
2023-04-30T18:41:14.816Z,98246.03
2023-04-30T18:43:45.700Z,98240.81
2023-04-30T18:46:15.403Z,98246.72
2023-04-30T18:48:44.421Z,98244.75
2023-04-30T18:51:12.207Z,98242.34
2023-04-30T18:53:45.142Z,98241.09
2023-04-30T18:56:14.483Z,98247.78
2023-04-30T18:58:46.733Z,98248.47
2023-04-30T19:01:16.700Z,98240.97
2023-04-30T19:03:44.786Z,98248.47
2023-04-30T19:06:12.628Z,98250.75
2023-04-30T19:08:40.475Z,98253.84
2023-04-30T19:11:11.390Z,98249.44
2023-04-30T19:13:39.297Z,98247.81
2023-04-30T19:16:07.843Z,98248.16
2023-04-30T19:18:38.582Z,98247.75
2023-04-30T19:21:07.220Z,98250.91
2023-04-30T19:23:35.715Z,98248.84
2023-04-30T19:26:03.937Z,98255.84
2023-04-30T19:28:31.865Z,98258.22
2023-04-30T19:30:59.793Z,98261.69
2023-04-30T19:33:28.325Z,98261.59
2023-04-30T19:35:57.700Z,98272.13
2023-04-30T19:38:25.907Z,98272.91
2023-04-30T19:40:55.421Z,98277.63
2023-04-30T19:43:25.268Z,98264.19
2023-04-30T19:45:59.284Z,98270.88
2023-04-30T19:48:27.334Z,98263.28
2023-04-30T19:51:01.240Z,98260.13
2023-04-30T19:53:30.929Z,98262.34
2023-04-30T19:56:00.061Z,98263.00
2023-04-30T19:58:33.645Z,98269.34
2023-04-30T20:01:02.877Z,98266.06
2023-04-30T20:03:34.205Z,98270.28
2023-04-30T20:06:05.952Z,98265.97
2023-04-30T20:08:35.190Z,98263.53
2023-04-30T20:11:08.598Z,98266.66
2023-04-30T20:13:36.651Z,98268.19
2023-04-30T20:16:09.676Z,98271.25
2023-04-30T20:18:38.618Z,98269.25
2023-04-30T20:21:12.923Z,98267.09
2023-04-30T20:23:49.313Z,98265.53
2023-04-30T20:26:22.818Z,98266.03
2023-04-30T20:28:54.922Z,98270.16
2023-04-30T20:31:31.133Z,98267.28
2023-04-30T20:34:03.838Z,98271.19
2023-04-30T20:36:38.940Z,98275.34
2023-04-30T20:39:19.106Z,98277.28
2023-04-30T20:41:49.898Z,98282.41
2023-04-30T20:44:20.186Z,98279.75
2023-04-30T20:46:49.053Z,98280.47
2023-04-30T20:49:20.981Z,98271.81
2023-04-30T20:52:04.407Z,98279.59
2023-04-30T20:54:41.729Z,98273.94
2023-04-30T20:57:13.480Z,98277.06
2023-04-30T20:59:47.395Z,98278.63
2023-04-30T21:02:15.674Z,98281.53
2023-04-30T21:04:48.394Z,98283.72
2023-04-30T21:07:17.769Z,98280.41
2023-04-30T21:09:48.464Z,98277.63
2023-04-30T21:12:18.846Z,98281.00
2023-04-30T21:14:48.778Z,98281.81
2023-04-30T21:17:17.075Z,98279.31
2023-04-30T21:19:47.222Z,98275.84
2023-04-30T21:22:16.132Z,98283.59
2023-04-30T21:24:44.080Z,98285.59
2023-04-30T21:27:13.845Z,98285.03
2023-04-30T21:29:44.799Z,98276.38
2023-04-30T21:32:12.757Z,98275.19
2023-04-30T21:34:40.503Z,98280.53
2023-04-30T21:37:08.916Z,98283.84
2023-04-30T21:39:37.701Z,98278.22
2023-04-30T21:42:05.812Z,98273.22
2023-04-30T21:44:36.403Z,98270.13
2023-04-30T21:47:04.782Z,98269.25
2023-04-30T21:49:36.666Z,98269.03
2023-04-30T21:52:08.155Z,98274.28
2023-04-30T21:54:37.589Z,98281.34
2023-04-30T21:57:08.591Z,98279.94
2023-04-30T21:59:43.121Z,98274.34
2023-04-30T22:02:22.910Z,98278.16
2023-04-30T22:04:55.462Z,98270.78
2023-04-30T22:07:34.028Z,98276.41
2023-04-30T22:10:06.325Z,98275.97
2023-04-30T22:12:35.526Z,98269.53
2023-04-30T22:15:07.022Z,98272.78
2023-04-30T22:17:35.106Z,98276.69
2023-04-30T22:20:08.889Z,98277.13
2023-04-30T22:22:37.918Z,98281.25
2023-04-30T22:25:06.771Z,98280.06
2023-04-30T22:27:35.881Z,98279.59
2023-04-30T22:30:07.864Z,98278.78
2023-04-30T22:32:38.134Z,98276.22
2023-04-30T22:35:10.378Z,98270.91
2023-04-30T22:37:39.270Z,98268.97
2023-04-30T22:40:08.258Z,98268.97
2023-04-30T22:42:36.763Z,98265.28
2023-04-30T22:45:07.605Z,98252.56
2023-04-30T22:47:35.791Z,98262.63
2023-04-30T22:50:04.841Z,98257.34
2023-04-30T22:52:33.745Z,98258.28
2023-04-30T22:55:02.980Z,98261.81
2023-04-30T22:57:30.896Z,98262.19
2023-04-30T22:59:59.329Z,98260.84
2023-04-30T23:02:29.123Z,98265.44
2023-04-30T23:04:56.951Z,98270.13
2023-04-30T23:07:24.812Z,98265.44
2023-04-30T23:09:52.558Z,98267.63
2023-04-30T23:12:20.559Z,98276.28
2023-04-30T23:14:49.357Z,98270.56
2023-04-30T23:17:20.968Z,98265.88
2023-04-30T23:19:50.324Z,98266.47
2023-04-30T23:22:19.432Z,98268.06
2023-04-30T23:24:47.555Z,98260.31
2023-04-30T23:27:15.390Z,98260.47
2023-04-30T23:29:46.780Z,98254.97
2023-04-30T23:32:14.454Z,98260.53
2023-04-30T23:34:42.240Z,98262.13
2023-04-30T23:37:11.601Z,98257.69
2023-04-30T23:39:39.336Z,98254.78
2023-04-30T23:42:10.570Z,98257.31
2023-04-30T23:44:38.367Z,98249.44
2023-04-30T23:47:07.438Z,98249.22
2023-04-30T23:49:35.798Z,98243.41
2023-04-30T23:52:03.495Z,98239.69
2023-04-30T23:54:32.864Z,98243.75
2023-04-30T23:57:02.054Z,98235.69
2023-04-30T23:59:31.023Z,98238.06
